sensor_id;sensor_type;location;lat;lon;timestamp;pressure;altitude;pressure_sealevel;temperature
9985;BMP180;16737;50.932;6.780;2023-08-20T00:01:06;100786.00;;;26.90
9985;BMP180;16737;50.932;6.780;2023-08-20T00:03:35;100783.00;;;26.90
9985;BMP180;16737;50.932;6.780;2023-08-20T00:06:03;100779.00;;;26.90
9985;BMP180;16737;50.932;6.780;2023-08-20T00:08:30;100767.00;;;26.90
9985;BMP180;16737;50.932;6.780;2023-08-20T00:10:57;100769.00;;;26.90
9985;BMP180;16737;50.932;6.780;2023-08-20T00:13:24;100786.00;;;26.90
9985;BMP180;16737;50.932;6.780;2023-08-20T00:15:51;100787.00;;;26.80
9985;BMP180;16737;50.932;6.780;2023-08-20T00:18:19;100773.00;;;26.80
9985;BMP180;16737;50.932;6.780;2023-08-20T00:20:48;100793.00;;;26.80
9985;BMP180;16737;50.932;6.780;2023-08-20T00:23:17;100792.00;;;26.80
9985;BMP180;16737;50.932;6.780;2023-08-20T00:25:44;100789.00;;;26.80
9985;BMP180;16737;50.932;6.780;2023-08-20T00:28:14;100793.00;;;26.80
9985;BMP180;16737;50.932;6.780;2023-08-20T00:30:40;100782.00;;;26.80
9985;BMP180;16737;50.932;6.780;2023-08-20T00:33:07;100807.00;;;26.80
9985;BMP180;16737;50.932;6.780;2023-08-20T00:35:34;100797.00;;;26.80
9985;BMP180;16737;50.932;6.780;2023-08-20T00:38:03;100802.00;;;26.80
9985;BMP180;16737;50.932;6.780;2023-08-20T00:40:30;100796.00;;;26.80
9985;BMP180;16737;50.932;6.780;2023-08-20T00:42:57;100803.00;;;26.40
9985;BMP180;16737;50.932;6.780;2023-08-20T00:45:25;100806.00;;;26.80
9985;BMP180;16737;50.932;6.780;2023-08-20T00:47:52;100803.00;;;26.80
9985;BMP180;16737;50.932;6.780;2023-08-20T00:50:20;100798.00;;;26.80
9985;BMP180;16737;50.932;6.780;2023-08-20T00:52:47;100797.00;;;26.70
9985;BMP180;16737;50.932;6.780;2023-08-20T00:55:16;100793.00;;;26.80
9985;BMP180;16737;50.932;6.780;2023-08-20T00:57:44;100794.00;;;26.70
9985;BMP180;16737;50.932;6.780;2023-08-20T01:00:11;100788.00;;;26.70
9985;BMP180;16737;50.932;6.780;2023-08-20T01:02:39;100788.00;;;26.70
9985;BMP180;16737;50.932;6.780;2023-08-20T01:05:09;100786.00;;;26.70
9985;BMP180;16737;50.932;6.780;2023-08-20T01:07:49;100782.00;;;26.70
9985;BMP180;16737;50.932;6.780;2023-08-20T01:10:32;100774.00;;;26.70
9985;BMP180;16737;50.932;6.780;2023-08-20T01:13:00;100760.00;;;26.70
9985;BMP180;16737;50.932;6.780;2023-08-20T01:15:28;100744.00;;;26.70
9985;BMP180;16737;50.932;6.780;2023-08-20T01:17:55;100752.00;;;26.70
9985;BMP180;16737;50.932;6.780;2023-08-20T01:20:28;100751.00;;;26.60
9985;BMP180;16737;50.932;6.780;2023-08-20T01:26:30;100771.00;;;26.50
9985;BMP180;16737;50.932;6.780;2023-08-20T01:29:04;100773.00;;;26.50
9985;BMP180;16737;50.932;6.780;2023-08-20T01:31:33;100772.00;;;26.50
9985;BMP180;16737;50.932;6.780;2023-08-20T01:34:01;100772.00;;;26.50
9985;BMP180;16737;50.932;6.780;2023-08-20T01:36:28;100762.00;;;26.50
9985;BMP180;16737;50.932;6.780;2023-08-20T01:38:55;100768.00;;;26.40
9985;BMP180;16737;50.932;6.780;2023-08-20T01:41:22;100772.00;;;26.50
9985;BMP180;16737;50.932;6.780;2023-08-20T01:43:49;100775.00;;;26.40
9985;BMP180;16737;50.932;6.780;2023-08-20T01:46:17;100775.00;;;26.40
9985;BMP180;16737;50.932;6.780;2023-08-20T01:48:44;100773.00;;;26.40
9985;BMP180;16737;50.932;6.780;2023-08-20T01:51:11;100777.00;;;26.40
9985;BMP180;16737;50.932;6.780;2023-08-20T01:53:39;100782.00;;;26.40
9985;BMP180;16737;50.932;6.780;2023-08-20T01:56:11;100768.00;;;26.30
9985;BMP180;16737;50.932;6.780;2023-08-20T01:58:38;100789.00;;;26.30
9985;BMP180;16737;50.932;6.780;2023-08-20T02:01:06;100787.00;;;26.30
9985;BMP180;16737;50.932;6.780;2023-08-20T02:03:36;100794.00;;;26.20
9985;BMP180;16737;50.932;6.780;2023-08-20T02:06:03;100788.00;;;26.20
9985;BMP180;16737;50.932;6.780;2023-08-20T02:08:30;100792.00;;;26.20
9985;BMP180;16737;50.932;6.780;2023-08-20T02:11:09;100793.00;;;26.20
9985;BMP180;16737;50.932;6.780;2023-08-20T02:13:39;100800.00;;;26.10
9985;BMP180;16737;50.932;6.780;2023-08-20T02:16:06;100787.00;;;26.20
9985;BMP180;16737;50.932;6.780;2023-08-20T02:18:34;100793.00;;;26.10
9985;BMP180;16737;50.932;6.780;2023-08-20T02:21:01;100796.00;;;26.10
9985;BMP180;16737;50.932;6.780;2023-08-20T02:23:28;100794.00;;;26.10
9985;BMP180;16737;50.932;6.780;2023-08-20T02:25:55;100796.00;;;26.10
9985;BMP180;16737;50.932;6.780;2023-08-20T02:28:22;100783.00;;;26.10
9985;BMP180;16737;50.932;6.780;2023-08-20T02:30:50;100785.00;;;26.10
9985;BMP180;16737;50.932;6.780;2023-08-20T02:33:17;100791.00;;;26.10
9985;BMP180;16737;50.932;6.780;2023-08-20T02:35:45;100802.00;;;26.10
9985;BMP180;16737;50.932;6.780;2023-08-20T02:38:12;100808.00;;;26.10
9985;BMP180;16737;50.932;6.780;2023-08-20T02:40:41;100819.00;;;26.10
9985;BMP180;16737;50.932;6.780;2023-08-20T02:43:08;100825.00;;;26.00
9985;BMP180;16737;50.932;6.780;2023-08-20T02:45:41;100829.00;;;26.00
9985;BMP180;16737;50.932;6.780;2023-08-20T02:48:08;100827.00;;;26.00
9985;BMP180;16737;50.932;6.780;2023-08-20T02:50:35;100819.00;;;26.00
9985;BMP180;16737;50.932;6.780;2023-08-20T02:53:04;100809.00;;;26.00
9985;BMP180;16737;50.932;6.780;2023-08-20T02:55:31;100810.00;;;26.00
9985;BMP180;16737;50.932;6.780;2023-08-20T02:57:59;100800.00;;;26.00
9985;BMP180;16737;50.932;6.780;2023-08-20T03:00:26;100818.00;;;26.00
9985;BMP180;16737;50.932;6.780;2023-08-20T03:02:53;100819.00;;;26.10
9985;BMP180;16737;50.932;6.780;2023-08-20T03:05:20;100817.00;;;26.10
9985;BMP180;16737;50.932;6.780;2023-08-20T03:07:47;100822.00;;;26.10
9985;BMP180;16737;50.932;6.780;2023-08-20T03:10:16;100814.00;;;26.10
9985;BMP180;16737;50.932;6.780;2023-08-20T03:12:43;100822.00;;;26.10
9985;BMP180;16737;50.932;6.780;2023-08-20T03:15:10;100817.00;;;26.20
9985;BMP180;16737;50.932;6.780;2023-08-20T03:17:36;100820.00;;;26.20
9985;BMP180;16737;50.932;6.780;2023-08-20T03:20:05;100817.00;;;26.20
9985;BMP180;16737;50.932;6.780;2023-08-20T03:22:32;100825.00;;;26.20
9985;BMP180;16737;50.932;6.780;2023-08-20T03:24:59;100829.00;;;26.20
9985;BMP180;16737;50.932;6.780;2023-08-20T03:27:27;100821.00;;;26.20
9985;BMP180;16737;50.932;6.780;2023-08-20T03:29:54;100821.00;;;26.20
9985;BMP180;16737;50.932;6.780;2023-08-20T03:32:21;100806.00;;;26.30
9985;BMP180;16737;50.932;6.780;2023-08-20T03:34:49;100815.00;;;26.30
9985;BMP180;16737;50.932;6.780;2023-08-20T03:37:16;100829.00;;;26.30
9985;BMP180;16737;50.932;6.780;2023-08-20T03:39:43;100833.00;;;26.30
9985;BMP180;16737;50.932;6.780;2023-08-20T03:42:10;100833.00;;;26.20
9985;BMP180;16737;50.932;6.780;2023-08-20T03:44:38;100820.00;;;26.10
9985;BMP180;16737;50.932;6.780;2023-08-20T03:47:05;100849.00;;;26.00
9985;BMP180;16737;50.932;6.780;2023-08-20T03:49:32;100848.00;;;26.00
9985;BMP180;16737;50.932;6.780;2023-08-20T03:51:59;100839.00;;;26.00
9985;BMP180;16737;50.932;6.780;2023-08-20T03:54:27;100851.00;;;25.90
9985;BMP180;16737;50.932;6.780;2023-08-20T03:56:55;100847.00;;;25.90
9985;BMP180;16737;50.932;6.780;2023-08-20T03:59:22;100833.00;;;25.90
9985;BMP180;16737;50.932;6.780;2023-08-20T04:01:50;100843.00;;;25.90
9985;BMP180;16737;50.932;6.780;2023-08-20T04:04:17;100851.00;;;25.90
9985;BMP180;16737;50.932;6.780;2023-08-20T04:06:44;100858.00;;;25.80
9985;BMP180;16737;50.932;6.780;2023-08-20T04:09:11;100858.00;;;25.80
9985;BMP180;16737;50.932;6.780;2023-08-20T04:11:38;100860.00;;;25.80
9985;BMP180;16737;50.932;6.780;2023-08-20T04:14:05;100865.00;;;25.70
9985;BMP180;16737;50.932;6.780;2023-08-20T04:16:32;100858.00;;;25.70
9985;BMP180;16737;50.932;6.780;2023-08-20T04:19:00;100869.00;;;25.70
9985;BMP180;16737;50.932;6.780;2023-08-20T04:21:27;100825.00;;;25.80
9985;BMP180;16737;50.932;6.780;2023-08-20T04:23:54;100865.00;;;25.80
9985;BMP180;16737;50.932;6.780;2023-08-20T04:26:21;100859.00;;;25.80
9985;BMP180;16737;50.932;6.780;2023-08-20T04:28:48;100859.00;;;25.80
9985;BMP180;16737;50.932;6.780;2023-08-20T04:31:14;100867.00;;;25.80
9985;BMP180;16737;50.932;6.780;2023-08-20T04:33:41;100865.00;;;25.90
9985;BMP180;16737;50.932;6.780;2023-08-20T04:36:10;100871.00;;;25.90
9985;BMP180;16737;50.932;6.780;2023-08-20T04:38:37;100880.00;;;25.90
9985;BMP180;16737;50.932;6.780;2023-08-20T04:41:04;100871.00;;;25.90
9985;BMP180;16737;50.932;6.780;2023-08-20T04:43:31;100873.00;;;25.90
9985;BMP180;16737;50.932;6.780;2023-08-20T04:45:57;100871.00;;;25.90
9985;BMP180;16737;50.932;6.780;2023-08-20T04:48:24;100871.00;;;25.90
9985;BMP180;16737;50.932;6.780;2023-08-20T04:50:51;100874.00;;;25.90
9985;BMP180;16737;50.932;6.780;2023-08-20T04:53:19;100885.00;;;25.90
9985;BMP180;16737;50.932;6.780;2023-08-20T04:55:46;100885.00;;;26.00
9985;BMP180;16737;50.932;6.780;2023-08-20T04:58:13;100863.00;;;26.00
9985;BMP180;16737;50.932;6.780;2023-08-20T05:00:40;100865.00;;;26.00
9985;BMP180;16737;50.932;6.780;2023-08-20T05:03:07;100891.00;;;26.00
9985;BMP180;16737;50.932;6.780;2023-08-20T05:05:34;100893.00;;;26.00
9985;BMP180;16737;50.932;6.780;2023-08-20T05:08:01;100891.00;;;26.00
9985;BMP180;16737;50.932;6.780;2023-08-20T05:10:29;100901.00;;;26.00
9985;BMP180;16737;50.932;6.780;2023-08-20T05:12:56;100876.00;;;26.00
9985;BMP180;16737;50.932;6.780;2023-08-20T05:15:23;100886.00;;;26.00
9985;BMP180;16737;50.932;6.780;2023-08-20T05:17:50;100873.00;;;26.00
9985;BMP180;16737;50.932;6.780;2023-08-20T05:20:17;100889.00;;;26.00
9985;BMP180;16737;50.932;6.780;2023-08-20T05:22:44;100891.00;;;26.00
9985;BMP180;16737;50.932;6.780;2023-08-20T05:25:11;100891.00;;;26.00
9985;BMP180;16737;50.932;6.780;2023-08-20T05:27:39;100886.00;;;26.00
9985;BMP180;16737;50.932;6.780;2023-08-20T05:30:07;100892.00;;;26.00
9985;BMP180;16737;50.932;6.780;2023-08-20T05:32:35;100895.00;;;26.00
9985;BMP180;16737;50.932;6.780;2023-08-20T05:35:02;100878.00;;;25.90
9985;BMP180;16737;50.932;6.780;2023-08-20T05:37:29;100886.00;;;26.00
9985;BMP180;16737;50.932;6.780;2023-08-20T05:39:56;100890.00;;;25.90
9985;BMP180;16737;50.932;6.780;2023-08-20T05:42:23;100895.00;;;25.90
9985;BMP180;16737;50.932;6.780;2023-08-20T05:44:52;100895.00;;;25.90
9985;BMP180;16737;50.932;6.780;2023-08-20T05:47:19;100896.00;;;26.00
9985;BMP180;16737;50.932;6.780;2023-08-20T05:49:45;100906.00;;;26.00
9985;BMP180;16737;50.932;6.780;2023-08-20T05:52:12;100902.00;;;26.00
9985;BMP180;16737;50.932;6.780;2023-08-20T05:54:39;100895.00;;;26.00
9985;BMP180;16737;50.932;6.780;2023-08-20T05:57:07;100903.00;;;26.00
9985;BMP180;16737;50.932;6.780;2023-08-20T05:59:34;100907.00;;;26.00
9985;BMP180;16737;50.932;6.780;2023-08-20T06:02:03;100909.00;;;26.00
9985;BMP180;16737;50.932;6.780;2023-08-20T06:04:30;100897.00;;;26.00
9985;BMP180;16737;50.932;6.780;2023-08-20T06:06:57;100910.00;;;26.00
9985;BMP180;16737;50.932;6.780;2023-08-20T06:09:24;100909.00;;;25.90
9985;BMP180;16737;50.932;6.780;2023-08-20T06:11:51;100893.00;;;25.90
9985;BMP180;16737;50.932;6.780;2023-08-20T06:14:18;100913.00;;;25.90
9985;BMP180;16737;50.932;6.780;2023-08-20T06:16:44;100903.00;;;25.90
9985;BMP180;16737;50.932;6.780;2023-08-20T06:19:13;100905.00;;;26.00
9985;BMP180;16737;50.932;6.780;2023-08-20T06:21:40;100913.00;;;26.00
9985;BMP180;16737;50.932;6.780;2023-08-20T06:24:07;100901.00;;;26.10
9985;BMP180;16737;50.932;6.780;2023-08-20T06:26:34;100907.00;;;26.10
9985;BMP180;16737;50.932;6.780;2023-08-20T06:29:01;100911.00;;;26.10
9985;BMP180;16737;50.932;6.780;2023-08-20T06:31:28;100908.00;;;26.10
9985;BMP180;16737;50.932;6.780;2023-08-20T06:33:55;100902.00;;;26.20
9985;BMP180;16737;50.932;6.780;2023-08-20T06:36:23;100905.00;;;26.20
9985;BMP180;16737;50.932;6.780;2023-08-20T06:38:50;100893.00;;;26.30
9985;BMP180;16737;50.932;6.780;2023-08-20T06:41:17;100904.00;;;26.30
9985;BMP180;16737;50.932;6.780;2023-08-20T06:43:44;100913.00;;;26.30
9985;BMP180;16737;50.932;6.780;2023-08-20T06:46:11;100914.00;;;26.40
9985;BMP180;16737;50.932;6.780;2023-08-20T06:48:38;100898.00;;;26.40
9985;BMP180;16737;50.932;6.780;2023-08-20T06:51:11;100917.00;;;26.40
9985;BMP180;16737;50.932;6.780;2023-08-20T06:53:39;100925.00;;;26.40
9985;BMP180;16737;50.932;6.780;2023-08-20T06:56:06;100923.00;;;26.40
9985;BMP180;16737;50.932;6.780;2023-08-20T06:58:34;100922.00;;;26.40
9985;BMP180;16737;50.932;6.780;2023-08-20T07:01:01;100928.00;;;26.40
9985;BMP180;16737;50.932;6.780;2023-08-20T07:03:33;100919.00;;;26.50
9985;BMP180;16737;50.932;6.780;2023-08-20T07:06:01;100933.00;;;26.50
9985;BMP180;16737;50.932;6.780;2023-08-20T07:08:28;100916.00;;;26.50
9985;BMP180;16737;50.932;6.780;2023-08-20T07:10:56;100917.00;;;26.60
9985;BMP180;16737;50.932;6.780;2023-08-20T07:13:23;100929.00;;;26.60
9985;BMP180;16737;50.932;6.780;2023-08-20T07:15:51;100911.00;;;26.60
9985;BMP180;16737;50.932;6.780;2023-08-20T07:18:18;100936.00;;;26.70
9985;BMP180;16737;50.932;6.780;2023-08-20T07:20:45;100931.00;;;26.70
9985;BMP180;16737;50.932;6.780;2023-08-20T07:23:12;100927.00;;;26.70
9985;BMP180;16737;50.932;6.780;2023-08-20T07:25:41;100907.00;;;26.70
9985;BMP180;16737;50.932;6.780;2023-08-20T07:28:09;100923.00;;;26.80
9985;BMP180;16737;50.932;6.780;2023-08-20T07:30:36;100922.00;;;26.80
9985;BMP180;16737;50.932;6.780;2023-08-20T07:33:05;100929.00;;;26.80
9985;BMP180;16737;50.932;6.780;2023-08-20T07:35:35;100927.00;;;26.80
9985;BMP180;16737;50.932;6.780;2023-08-20T07:38:03;100923.00;;;26.80
9985;BMP180;16737;50.932;6.780;2023-08-20T07:40:30;100918.00;;;26.90
9985;BMP180;16737;50.932;6.780;2023-08-20T07:42:57;100906.00;;;26.90
9985;BMP180;16737;50.932;6.780;2023-08-20T07:45:25;100914.00;;;27.00
9985;BMP180;16737;50.932;6.780;2023-08-20T07:47:52;100926.00;;;27.00
9985;BMP180;16737;50.932;6.780;2023-08-20T07:50:19;100921.00;;;27.10
9985;BMP180;16737;50.932;6.780;2023-08-20T07:52:46;100931.00;;;27.20
9985;BMP180;16737;50.932;6.780;2023-08-20T07:55:14;100933.00;;;27.20
9985;BMP180;16737;50.932;6.780;2023-08-20T07:57:41;100924.00;;;27.30
9985;BMP180;16737;50.932;6.780;2023-08-20T08:00:12;100925.00;;;27.30
9985;BMP180;16737;50.932;6.780;2023-08-20T08:02:40;100935.00;;;27.40
9985;BMP180;16737;50.932;6.780;2023-08-20T08:05:08;100930.00;;;27.40
9985;BMP180;16737;50.932;6.780;2023-08-20T08:07:35;100935.00;;;27.50
9985;BMP180;16737;50.932;6.780;2023-08-20T08:10:03;100934.00;;;27.60
9985;BMP180;16737;50.932;6.780;2023-08-20T08:12:30;100937.00;;;27.60
9985;BMP180;16737;50.932;6.780;2023-08-20T08:14:57;100939.00;;;27.70
9985;BMP180;16737;50.932;6.780;2023-08-20T08:17:24;100940.00;;;27.70
9985;BMP180;16737;50.932;6.780;2023-08-20T08:19:52;100932.00;;;27.80
9985;BMP180;16737;50.932;6.780;2023-08-20T08:22:21;100947.00;;;27.90
9985;BMP180;16737;50.932;6.780;2023-08-20T08:24:48;100946.00;;;27.90
9985;BMP180;16737;50.932;6.780;2023-08-20T08:27:15;100954.00;;;28.00
9985;BMP180;16737;50.932;6.780;2023-08-20T08:29:41;100945.00;;;28.10
9985;BMP180;16737;50.932;6.780;2023-08-20T08:32:10;100950.00;;;28.10
9985;BMP180;16737;50.932;6.780;2023-08-20T08:34:37;100946.00;;;28.20
9985;BMP180;16737;50.932;6.780;2023-08-20T08:37:05;100956.00;;;28.20
9985;BMP180;16737;50.932;6.780;2023-08-20T08:39:34;100944.00;;;28.30
9985;BMP180;16737;50.932;6.780;2023-08-20T08:42:04;100954.00;;;28.40
9985;BMP180;16737;50.932;6.780;2023-08-20T08:44:33;100947.00;;;28.40
9985;BMP180;16737;50.932;6.780;2023-08-20T08:47:01;100946.00;;;28.50
9985;BMP180;16737;50.932;6.780;2023-08-20T08:49:30;100946.00;;;28.60
9985;BMP180;16737;50.932;6.780;2023-08-20T08:51:58;100950.00;;;28.70
9985;BMP180;16737;50.932;6.780;2023-08-20T08:54:26;100939.00;;;28.70
9985;BMP180;16737;50.932;6.780;2023-08-20T08:56:53;100947.00;;;28.80
9985;BMP180;16737;50.932;6.780;2023-08-20T08:59:20;100946.00;;;28.90
9985;BMP180;16737;50.932;6.780;2023-08-20T09:01:49;100947.00;;;28.90
9985;BMP180;16737;50.932;6.780;2023-08-20T09:04:16;100948.00;;;29.00
9985;BMP180;16737;50.932;6.780;2023-08-20T09:06:46;100944.00;;;29.10
9985;BMP180;16737;50.932;6.780;2023-08-20T09:09:14;100954.00;;;29.20
9985;BMP180;16737;50.932;6.780;2023-08-20T09:11:43;100951.00;;;29.20
9985;BMP180;16737;50.932;6.780;2023-08-20T09:14:21;100957.00;;;29.30
9985;BMP180;16737;50.932;6.780;2023-08-20T09:16:55;100958.00;;;29.40
9985;BMP180;16737;50.932;6.780;2023-08-20T09:19:23;100943.00;;;29.50
9985;BMP180;16737;50.932;6.780;2023-08-20T09:21:50;100945.00;;;29.60
9985;BMP180;16737;50.932;6.780;2023-08-20T09:24:26;100954.00;;;29.70
9985;BMP180;16737;50.932;6.780;2023-08-20T09:27:04;100958.00;;;29.70
9985;BMP180;16737;50.932;6.780;2023-08-20T09:29:32;100959.00;;;29.70
9985;BMP180;16737;50.932;6.780;2023-08-20T09:32:03;100962.00;;;30.00
9985;BMP180;16737;50.932;6.780;2023-08-20T09:34:37;100961.00;;;30.00
9985;BMP180;16737;50.932;6.780;2023-08-20T09:37:08;100954.00;;;30.10
9985;BMP180;16737;50.932;6.780;2023-08-20T09:39:36;100964.00;;;30.20
9985;BMP180;16737;50.932;6.780;2023-08-20T09:42:05;100952.00;;;30.30
9985;BMP180;16737;50.932;6.780;2023-08-20T09:44:35;100968.00;;;30.30
9985;BMP180;16737;50.932;6.780;2023-08-20T09:47:06;100969.00;;;30.40
9985;BMP180;16737;50.932;6.780;2023-08-20T09:49:38;100967.00;;;30.40
9985;BMP180;16737;50.932;6.780;2023-08-20T09:52:08;100968.00;;;30.40
9985;BMP180;16737;50.932;6.780;2023-08-20T09:54:59;100969.00;;;30.40
9985;BMP180;16737;50.932;6.780;2023-08-20T09:57:33;100969.00;;;30.40
9985;BMP180;16737;50.932;6.780;2023-08-20T10:00:04;100961.00;;;30.50
9985;BMP180;16737;50.932;6.780;2023-08-20T10:02:35;100971.00;;;30.50
9985;BMP180;16737;50.932;6.780;2023-08-20T10:05:05;100979.00;;;30.50
9985;BMP180;16737;50.932;6.780;2023-08-20T10:07:33;100977.00;;;30.50
9985;BMP180;16737;50.932;6.780;2023-08-20T10:10:03;100970.00;;;30.60
9985;BMP180;16737;50.932;6.780;2023-08-20T10:12:34;100967.00;;;30.70
9985;BMP180;16737;50.932;6.780;2023-08-20T10:15:07;100968.00;;;30.80
9985;BMP180;16737;50.932;6.780;2023-08-20T10:17:37;100979.00;;;30.80
9985;BMP180;16737;50.932;6.780;2023-08-20T10:20:05;100978.00;;;30.90
9985;BMP180;16737;50.932;6.780;2023-08-20T10:22:35;100983.00;;;31.00
9985;BMP180;16737;50.932;6.780;2023-08-20T10:25:06;100965.00;;;31.10
9985;BMP180;16737;50.932;6.780;2023-08-20T10:27:36;100977.00;;;31.20
9985;BMP180;16737;50.932;6.780;2023-08-20T10:30:09;100976.00;;;31.20
9985;BMP180;16737;50.932;6.780;2023-08-20T10:32:47;100981.00;;;31.30
9985;BMP180;16737;50.932;6.780;2023-08-20T10:35:22;100979.00;;;31.30
9985;BMP180;16737;50.932;6.780;2023-08-20T10:38:05;100974.00;;;31.30
9985;BMP180;16737;50.932;6.780;2023-08-20T10:40:51;100984.00;;;31.30
9985;BMP180;16737;50.932;6.780;2023-08-20T10:43:34;100980.00;;;31.30
9985;BMP180;16737;50.932;6.780;2023-08-20T10:46:16;100981.00;;;31.30
9985;BMP180;16737;50.932;6.780;2023-08-20T10:48:47;100978.00;;;31.30
9985;BMP180;16737;50.932;6.780;2023-08-20T10:51:16;100975.00;;;31.40
9985;BMP180;16737;50.932;6.780;2023-08-20T10:54:02;100982.00;;;31.40
9985;BMP180;16737;50.932;6.780;2023-08-20T10:56:40;100976.00;;;31.40
9985;BMP180;16737;50.932;6.780;2023-08-20T10:59:17;100982.00;;;31.40
9985;BMP180;16737;50.932;6.780;2023-08-20T11:01:45;100977.00;;;31.50
9985;BMP180;16737;50.932;6.780;2023-08-20T11:04:13;100966.00;;;31.50
9985;BMP180;16737;50.932;6.780;2023-08-20T11:06:41;100974.00;;;31.60
9985;BMP180;16737;50.932;6.780;2023-08-20T11:09:08;100980.00;;;31.60
9985;BMP180;16737;50.932;6.780;2023-08-20T11:11:38;100974.00;;;31.70
9985;BMP180;16737;50.932;6.780;2023-08-20T11:14:07;100976.00;;;31.80
9985;BMP180;16737;50.932;6.780;2023-08-20T11:16:36;100971.00;;;31.90
9985;BMP180;16737;50.932;6.780;2023-08-20T11:19:03;100973.00;;;31.90
9985;BMP180;16737;50.932;6.780;2023-08-20T11:21:34;100968.00;;;32.00
9985;BMP180;16737;50.932;6.780;2023-08-20T11:24:01;100969.00;;;32.00
9985;BMP180;16737;50.932;6.780;2023-08-20T11:26:29;100974.00;;;32.00
9985;BMP180;16737;50.932;6.780;2023-08-20T11:28:56;100963.00;;;31.90
9985;BMP180;16737;50.932;6.780;2023-08-20T11:31:23;100966.00;;;31.90
9985;BMP180;16737;50.932;6.780;2023-08-20T11:33:52;100967.00;;;31.90
9985;BMP180;16737;50.932;6.780;2023-08-20T11:36:20;100960.00;;;31.90
9985;BMP180;16737;50.932;6.780;2023-08-20T11:38:50;100958.00;;;31.90
9985;BMP180;16737;50.932;6.780;2023-08-20T11:41:18;100968.00;;;31.90
9985;BMP180;16737;50.932;6.780;2023-08-20T11:43:46;100957.00;;;31.90
9985;BMP180;16737;50.932;6.780;2023-08-20T11:46:13;100958.00;;;31.90
9985;BMP180;16737;50.932;6.780;2023-08-20T11:49:01;100968.00;;;31.80
9985;BMP180;16737;50.932;6.780;2023-08-20T11:51:34;100949.00;;;31.90
9985;BMP180;16737;50.932;6.780;2023-08-20T11:54:01;100961.00;;;32.00
9985;BMP180;16737;50.932;6.780;2023-08-20T11:56:29;100950.00;;;32.00
9985;BMP180;16737;50.932;6.780;2023-08-20T11:58:59;100952.00;;;32.10
9985;BMP180;16737;50.932;6.780;2023-08-20T12:01:30;100952.00;;;32.20
9985;BMP180;16737;50.932;6.780;2023-08-20T12:04:03;100957.00;;;32.20
9985;BMP180;16737;50.932;6.780;2023-08-20T12:06:31;100957.00;;;32.40
9985;BMP180;16737;50.932;6.780;2023-08-20T12:08:58;100952.00;;;32.40
9985;BMP180;16737;50.932;6.780;2023-08-20T12:11:26;100941.00;;;32.50
9985;BMP180;16737;50.932;6.780;2023-08-20T12:13:54;100942.00;;;32.60
9985;BMP180;16737;50.932;6.780;2023-08-20T12:16:23;100952.00;;;32.70
9985;BMP180;16737;50.932;6.780;2023-08-20T12:18:51;100953.00;;;32.70
9985;BMP180;16737;50.932;6.780;2023-08-20T12:21:20;100950.00;;;32.80
9985;BMP180;16737;50.932;6.780;2023-08-20T12:23:47;100944.00;;;32.80
9985;BMP180;16737;50.932;6.780;2023-08-20T12:26:14;100941.00;;;32.90
9985;BMP180;16737;50.932;6.780;2023-08-20T12:28:43;100938.00;;;32.90
9985;BMP180;16737;50.932;6.780;2023-08-20T12:31:10;100936.00;;;33.00
9985;BMP180;16737;50.932;6.780;2023-08-20T12:33:37;100939.00;;;33.00
9985;BMP180;16737;50.932;6.780;2023-08-20T12:36:05;100937.00;;;33.00
9985;BMP180;16737;50.932;6.780;2023-08-20T12:38:33;100933.00;;;33.10
9985;BMP180;16737;50.932;6.780;2023-08-20T12:41:02;100917.00;;;33.20
9985;BMP180;16737;50.932;6.780;2023-08-20T12:43:31;100924.00;;;33.20
9985;BMP180;16737;50.932;6.780;2023-08-20T12:45:58;100926.00;;;33.30
9985;BMP180;16737;50.932;6.780;2023-08-20T12:48:25;100918.00;;;33.30
9985;BMP180;16737;50.932;6.780;2023-08-20T12:50:51;100926.00;;;33.30
9985;BMP180;16737;50.932;6.780;2023-08-20T12:53:18;100923.00;;;33.30
9985;BMP180;16737;50.932;6.780;2023-08-20T12:55:48;100917.00;;;33.20
9985;BMP180;16737;50.932;6.780;2023-08-20T12:58:15;100916.00;;;33.20
9985;BMP180;16737;50.932;6.780;2023-08-20T13:00:41;100915.00;;;33.20
9985;BMP180;16737;50.932;6.780;2023-08-20T13:03:10;100919.00;;;33.20
9985;BMP180;16737;50.932;6.780;2023-08-20T13:05:38;100917.00;;;33.20
9985;BMP180;16737;50.932;6.780;2023-08-20T13:08:07;100914.00;;;33.20
9985;BMP180;16737;50.932;6.780;2023-08-20T13:10:35;100919.00;;;33.20
9985;BMP180;16737;50.932;6.780;2023-08-20T13:13:04;100919.00;;;33.10
9985;BMP180;16737;50.932;6.780;2023-08-20T13:15:32;100912.00;;;33.10
9985;BMP180;16737;50.932;6.780;2023-08-20T13:18:00;100920.00;;;33.10
9985;BMP180;16737;50.932;6.780;2023-08-20T13:20:28;100927.00;;;33.10
9985;BMP180;16737;50.932;6.780;2023-08-20T13:22:55;100923.00;;;33.10
9985;BMP180;16737;50.932;6.780;2023-08-20T13:25:23;100915.00;;;33.10
9985;BMP180;16737;50.932;6.780;2023-08-20T13:27:50;100911.00;;;33.10
9985;BMP180;16737;50.932;6.780;2023-08-20T13:30:18;100914.00;;;33.10
9985;BMP180;16737;50.932;6.780;2023-08-20T13:32:45;100909.00;;;33.10
9985;BMP180;16737;50.932;6.780;2023-08-20T13:35:13;100916.00;;;33.10
9985;BMP180;16737;50.932;6.780;2023-08-20T13:37:40;100913.00;;;33.10
9985;BMP180;16737;50.932;6.780;2023-08-20T13:40:09;100918.00;;;33.10
9985;BMP180;16737;50.932;6.780;2023-08-20T13:42:36;100925.00;;;33.10
9985;BMP180;16737;50.932;6.780;2023-08-20T13:45:04;100919.00;;;33.10
9985;BMP180;16737;50.932;6.780;2023-08-20T13:47:32;100922.00;;;33.10
9985;BMP180;16737;50.932;6.780;2023-08-20T13:49:59;100917.00;;;33.10
9985;BMP180;16737;50.932;6.780;2023-08-20T13:52:28;100918.00;;;33.10
9985;BMP180;16737;50.932;6.780;2023-08-20T13:54:55;100915.00;;;33.10
9985;BMP180;16737;50.932;6.780;2023-08-20T13:57:22;100922.00;;;33.10
9985;BMP180;16737;50.932;6.780;2023-08-20T13:59:49;100910.00;;;33.10
9985;BMP180;16737;50.932;6.780;2023-08-20T14:02:16;100911.00;;;33.10
9985;BMP180;16737;50.932;6.780;2023-08-20T14:04:45;100911.00;;;33.10
9985;BMP180;16737;50.932;6.780;2023-08-20T14:07:12;100909.00;;;33.10
9985;BMP180;16737;50.932;6.780;2023-08-20T14:09:39;100909.00;;;33.10
9985;BMP180;16737;50.932;6.780;2023-08-20T14:12:07;100913.00;;;33.10
9985;BMP180;16737;50.932;6.780;2023-08-20T14:14:34;100912.00;;;33.20
9985;BMP180;16737;50.932;6.780;2023-08-20T14:17:01;100915.00;;;33.20
9985;BMP180;16737;50.932;6.780;2023-08-20T14:19:28;100912.00;;;33.20